Pucha Pucha, Argentina
Current Conditions -  °F | °C
As of 4:01 AM on Thursday 18 Dec 2014 (Local Time) from SCAT Reporting Station
NA  
Wind Chill: 57°   Ceiling: NA
Heat Index: 57°   Visibility: 6mi
Dew Point: 52°   Wind: 3mph
Humidity: 82%   Direction: 280°W
Pressure: 30.03"   Gusts: NA
Location:  28.34°S, 69.22°W
Report Text: SCAT 180701Z AUTO 28003KT 200V320 9999 // ///011 14/11 Q1017
Loading
Personal Weather Stations






























Interactive Weather Map New forecast layout! Learn more

10-Day Weather Forecast

Advertisements
Track Severe Weather on mobile